Time;durP1;ratioP1;P1;durP2;ratioP2;P2;SDS_P1;SDS_P2;PMS_P1;PMS_P2;Temp;Humidity;BMP_temperature;BMP_pressure;BME280_temperature;BME280_humidity;BME280_pressure;Samples;Min_cycle;Max_cycle;Signal;HPM_P1;HPM_P2
2023/08/29 00:00:23;;;;;;;5.47;3.90;;;13.60;99.90;;;;;;5072591;28;20521;-77
2023/08/29 00:02:49;;;;;;;7.18;3.67;;;13.60;99.90;;;;;;5077827;28;20402;-77
2023/08/29 00:05:15;;;;;;;9.98;3.50;;;13.60;99.90;;;;;;5082430;28;20039;-77
2023/08/29 00:07:41;;;;;;;5.45;3.45;;;13.50;99.90;;;;;;5092108;28;20039;-78
2023/08/29 00:10:07;;;;;;;7.72;4.10;;;13.50;99.90;;;;;;5114562;27;20036;-77
2023/08/29 00:12:33;;;;;;;9.02;3.72;;;13.50;99.90;;;;;;5057760;28;20123;-77
2023/08/29 00:15:04;;;;;;;7.13;3.58;;;13.50;99.90;;;;;;5076486;28;20175;-78
2023/08/29 00:17:30;;;;;;;4.43;3.35;;;13.50;99.90;;;;;;5080729;28;20051;-78
2023/08/29 00:19:55;;;;;;;5.88;3.47;;;13.50;99.90;;;;;;5089849;28;20040;-77
2023/08/29 00:22:21;;;;;;;5.53;3.53;;;13.40;99.90;;;;;;5090130;28;20054;-77
2023/08/29 00:24:48;;;;;;;7.22;3.45;;;13.40;99.90;;;;;;5088351;28;20101;-77
2023/08/29 00:27:15;;;;;;;9.90;4.00;;;13.40;99.90;;;;;;5071384;28;20047;-77
2023/08/29 00:29:44;;;;;;;6.53;3.67;;;13.40;99.90;;;;;;5088964;28;20072;-77
2023/08/29 00:32:12;;;;;;;7.20;3.88;;;13.40;99.90;;;;;;5087895;28;20374;-78
2023/08/29 00:34:38;;;;;;;5.55;3.38;;;13.40;99.90;;;;;;5090683;28;20062;-78
2023/08/29 00:37:03;;;;;;;6.78;3.85;;;13.40;99.90;;;;;;5091609;28;20131;-77
2023/08/29 00:39:29;;;;;;;4.97;3.60;;;13.40;99.90;;;;;;5089277;28;20056;-77
2023/08/29 00:41:55;;;;;;;6.15;3.60;;;13.40;99.90;;;;;;5091978;28;20032;-77
2023/08/29 00:44:22;;;;;;;5.93;3.92;;;13.40;99.90;;;;;;5081245;28;20113;-77
2023/08/29 00:46:48;;;;;;;10.63;4.00;;;13.40;99.90;;;;;;5088222;28;20551;-76
2023/08/29 00:49:22;;;;;;;5.68;3.65;;;13.40;99.90;;;;;;5090146;28;20036;-77
2023/08/29 00:51:48;;;;;;;6.53;3.70;;;13.30;99.90;;;;;;5072476;28;20065;-77
2023/08/29 00:54:16;;;;;;;5.32;3.53;;;13.40;99.90;;;;;;5087272;28;20040;-77
2023/08/29 00:56:42;;;;;;;6.38;3.97;;;13.40;99.90;;;;;;5091464;28;20393;-76
2023/08/29 00:59:08;;;;;;;8.02;4.10;;;13.30;99.90;;;;;;5091077;28;20052;-77
2023/08/29 01:01:35;;;;;;;6.95;3.80;;;13.40;99.90;;;;;;5080524;28;20108;-77
2023/08/29 01:04:02;;;;;;;6.28;4.03;;;13.40;99.90;;;;;;5083864;28;20036;-78
2023/08/29 01:06:30;;;;;;;5.97;4.32;;;13.30;99.90;;;;;;5096395;28;20181;-77
2023/08/29 01:08:57;;;;;;;8.38;4.05;;;13.30;99.90;;;;;;5086836;28;20435;-77
2023/08/29 01:11:29;;;;;;;5.72;4.40;;;13.30;99.90;;;;;;5076819;28;20500;-77
2023/08/29 01:14:22;;;;;;;8.80;4.13;;;13.30;99.90;;;;;;5094231;28;20434;-78
2023/08/29 01:16:59;;;;;;;7.97;3.70;;;13.30;99.90;;;;;;5083628;28;20044;-78
2023/08/29 01:19:25;;;;;;;5.47;3.95;;;13.30;99.90;;;;;;5090612;28;20218;-78
2023/08/29 01:22:21;;;;;;;5.43;3.88;;;13.30;99.90;;;;;;5082856;28;20055;-78
2023/08/29 01:24:58;;;;;;;7.45;3.85;;;13.20;99.90;;;;;;5085387;28;20044;-77
2023/08/29 01:27:26;;;;;;;6.95;3.85;;;13.20;99.90;;;;;;5093628;28;20097;-77
2023/08/29 01:29:53;;;;;;;8.00;4.03;;;13.10;99.90;;;;;;5084101;28;20044;-78
2023/08/29 01:32:19;;;;;;;6.75;3.60;;;13.10;99.90;;;;;;5076490;28;20049;-78
2023/08/29 01:34:46;;;;;;;11.00;4.28;;;13.10;99.90;;;;;;5091206;28;20075;-78
2023/08/29 01:37:12;;;;;;;6.72;3.97;;;13.10;99.90;;;;;;5092797;28;20055;-77
2023/08/29 01:39:38;;;;;;;7.25;3.60;;;13.10;99.90;;;;;;5082700;28;20032;-77
2023/08/29 01:42:07;;;;;;;6.22;3.92;;;13.10;99.90;;;;;;5093617;28;20069;-77
2023/08/29 01:44:32;;;;;;;10.65;4.13;;;13.10;99.90;;;;;;5087815;28;20524;-77
2023/08/29 01:46:58;;;;;;;7.68;4.22;;;13.10;99.90;;;;;;5092908;28;20182;-77
2023/08/29 01:49:24;;;;;;;5.75;3.58;;;13.00;99.90;;;;;;5090886;28;20076;-77
2023/08/29 01:51:50;;;;;;;5.43;3.63;;;13.00;99.90;;;;;;5080823;28;20115;-77
2023/08/29 01:54:16;;;;;;;6.53;3.85;;;13.00;99.90;;;;;;5092158;28;20047;-77
2023/08/29 01:56:42;;;;;;;6.75;4.00;;;12.90;99.90;;;;;;5086512;28;20052;-77
2023/08/29 01:59:09;;;;;;;9.23;4.05;;;12.90;99.90;;;;;;5091936;28;20100;-77
2023/08/29 02:01:35;;;;;;;8.63;4.40;;;12.90;99.90;;;;;;5092536;28;20122;-77
2023/08/29 02:04:01;;;;;;;6.28;3.88;;;12.80;99.90;;;;;;5099287;28;20077;-77
2023/08/29 02:06:28;;;;;;;7.13;3.85;;;12.80;99.90;;;;;;5098155;28;20446;-77
2023/08/29 02:08:54;;;;;;;9.25;3.80;;;12.80;99.90;;;;;;5106877;27;20062;-77
2023/08/29 02:11:19;;;;;;;6.45;4.10;;;12.80;99.90;;;;;;5091760;28;20098;-77
2023/08/29 02:13:45;;;;;;;6.88;4.63;;;12.70;99.90;;;;;;5113691;28;20040;-77
2023/08/29 02:16:11;;;;;;;5.32;3.78;;;12.70;99.90;;;;;;5093369;28;20036;-77
2023/08/29 02:18:36;;;;;;;6.20;3.63;;;12.80;99.90;;;;;;5108168;27;20379;-77
2023/08/29 02:21:02;;;;;;;8.88;4.15;;;12.70;99.90;;;;;;5095944;28;20075;-78
2023/08/29 02:23:28;;;;;;;5.80;3.70;;;12.70;99.90;;;;;;5084797;28;20551;-77
2023/08/29 02:26:04;;;;;;;5.78;4.13;;;12.70;99.90;;;;;;5100318;28;20063;-77
2023/08/29 02:28:38;;;;;;;7.25;4.03;;;12.70;99.90;;;;;;5101752;28;20058;-76
2023/08/29 02:31:10;;;;;;;4.30;3.80;;;12.70;99.90;;;;;;5079235;28;20050;-77
2023/08/29 02:33:37;;;;;;;6.18;3.70;;;12.60;99.90;;;;;;5098095;28;20172;-76
2023/08/29 02:36:04;;;;;;;5.85;4.00;;;12.60;99.90;;;;;;5084591;28;20119;-76
2023/08/29 02:38:30;;;;;;;7.82;3.83;;;12.60;99.90;;;;;;5083490;28;20080;-76
2023/08/29 02:40:56;;;;;;;5.78;3.60;;;12.60;99.90;;;;;;5098067;28;20447;-76
2023/08/29 02:43:22;;;;;;;6.57;3.92;;;12.50;99.90;;;;;;5120003;27;20036;-77
2023/08/29 02:45:50;;;;;;;7.10;3.88;;;12.50;99.90;;;;;;5078890;28;20036;-77
2023/08/29 02:48:15;;;;;;;;;;;12.50;99.90;;;;;;5074995;28;20055;-77
2023/08/29 02:50:42;;;;;;;6.75;4.38;;;12.50;99.90;;;;;;5083207;28;19920;-78
2023/08/29 02:53:08;;;;;;;6.85;4.07;;;12.50;99.90;;;;;;5081375;28;20082;-77
2023/08/29 02:55:33;;;;;;;7.20;4.40;;;12.50;99.90;;;;;;5073109;28;20036;-77
2023/08/29 02:57:59;;;;;;;6.32;3.60;;;12.40;99.90;;;;;;5088872;28;20181;-77
2023/08/29 03:00:25;;;;;;;6.88;3.83;;;12.50;99.90;;;;;;5088266;28;20032;-77
2023/08/29 03:02:50;;;;;;;10.43;4.18;;;12.40;99.90;;;;;;5080354;28;20124;-77
2023/08/29 03:05:16;;;;;;;8.27;4.10;;;12.40;99.90;;;;;;5063049;28;20068;-78
2023/08/29 03:07:42;;;;;;;5.88;3.97;;;12.40;99.90;;;;;;5079459;28;20517;-77
2023/08/29 03:10:08;;;;;;;5.72;4.10;;;12.40;99.90;;;;;;5084671;28;20122;-77
2023/08/29 03:12:33;;;;;;;6.10;3.97;;;12.40;99.90;;;;;;5100405;28;20055;-77
2023/08/29 03:14:59;;;;;;;5.55;3.85;;;12.40;99.90;;;;;;5083095;28;20037;-78
2023/08/29 03:17:25;;;;;;;7.07;4.15;;;12.40;99.90;;;;;;5089518;28;20040;-77
2023/08/29 03:19:51;;;;;;;5.95;4.18;;;12.40;99.90;;;;;;5105424;28;20044;-77
2023/08/29 03:22:16;;;;;;;7.93;4.65;;;12.30;99.90;;;;;;5095270;28;21347;-77
2023/08/29 03:24:46;;;;;;;8.30;4.40;;;12.30;99.90;;;;;;5104861;28;20044;-77
2023/08/29 03:27:12;;;;;;;8.18;4.65;;;12.30;99.90;;;;;;5096255;28;20048;-77
2023/08/29 03:29:40;;;;;;;7.57;3.83;;;12.30;99.90;;;;;;5057109;28;20041;-77
2023/08/29 03:32:05;;;;;;;5.80;4.20;;;12.30;99.90;;;;;;5083385;28;20037;-77
2023/08/29 03:34:32;;;;;;;7.88;4.45;;;12.30;99.90;;;;;;5086972;28;20312;-77
2023/08/29 03:36:57;;;;;;;5.78;4.28;;;12.20;99.90;;;;;;5090269;28;20047;-78
2023/08/29 03:39:23;;;;;;;6.03;4.25;;;12.20;99.90;;;;;;5086850;28;20490;-77
2023/08/29 03:41:49;;;;;;;8.15;4.38;;;12.20;99.90;;;;;;5092053;28;20047;-77
2023/08/29 03:44:14;;;;;;;7.28;4.97;;;12.20;99.90;;;;;;5089301;28;20047;-78
2023/08/29 03:46:40;;;;;;;11.82;4.90;;;12.20;99.90;;;;;;5078290;28;20375;-78
2023/08/29 03:49:06;;;;;;;6.90;4.72;;;12.20;99.90;;;;;;5085962;28;20040;-78
2023/08/29 03:51:31;;;;;;;7.50;4.47;;;12.10;99.90;;;;;;5103337;28;20066;-77
2023/08/29 03:53:57;;;;;;;6.88;4.90;;;12.10;99.90;;;;;;5091659;28;20050;-77
2023/08/29 03:56:22;;;;;;;7.18;4.70;;;12.10;99.90;;;;;;5080048;28;20098;-78
2023/08/29 03:58:49;;;;;;;8.13;5.20;;;12.10;99.90;;;;;;5093154;28;20044;-77
2023/08/29 04:01:15;;;;;;;6.60;4.80;;;12.10;99.90;;;;;;5090902;28;20090;-77
2023/08/29 04:03:41;;;;;;;7.13;4.63;;;12.10;99.90;;;;;;5090905;28;20067;-78
2023/08/29 04:06:07;;;;;;;7.38;5.38;;;12.10;99.90;;;;;;5086338;28;20044;-77
2023/08/29 04:08:33;;;;;;;6.85;5.25;;;12.00;99.90;;;;;;5077538;28;20173;-77
2023/08/29 04:10:59;;;;;;;11.25;5.43;;;12.00;99.90;;;;;;5084259;28;20178;-76
2023/08/29 04:13:24;;;;;;;7.97;5.15;;;12.00;99.90;;;;;;5074810;28;20098;-77
2023/08/29 04:15:50;;;;;;;10.48;4.88;;;12.00;99.90;;;;;;5089848;28;20394;-77
2023/08/29 04:18:16;;;;;;;8.77;5.07;;;12.00;99.90;;;;;;5072231;28;20048;-76
2023/08/29 04:20:43;;;;;;;6.70;4.63;;;12.00;99.90;;;;;;5073188;28;20406;-77
2023/08/29 04:23:10;;;;;;;5.30;4.30;;;12.00;99.90;;;;;;5080476;28;20051;-77
2023/08/29 04:25:36;;;;;;;7.57;4.90;;;12.00;99.90;;;;;;5073864;28;20076;-77
2023/08/29 04:28:05;;;;;;;9.43;5.05;;;12.00;99.90;;;;;;5080319;28;20100;-77
2023/08/29 04:30:31;;;;;;;6.55;4.97;;;12.00;99.90;;;;;;5073361;28;20044;-77
2023/08/29 04:32:59;;;;;;;8.13;4.80;;;12.00;99.90;;;;;;5084285;28;20394;-77
2023/08/29 04:35:25;;;;;;;5.90;4.57;;;12.00;99.90;;;;;;5089952;28;20074;-77
2023/08/29 04:37:50;;;;;;;7.95;5.10;;;12.00;99.90;;;;;;5083951;28;20044;-77
2023/08/29 04:40:17;;;;;;;7.50;4.90;;;12.00;99.90;;;;;;5094977;28;20457;-77
2023/08/29 04:42:44;;;;;;;8.20;5.00;;;12.00;99.90;;;;;;5108893;28;20036;-77
2023/08/29 04:45:11;;;;;;;9.35;5.13;;;12.00;99.90;;;;;;5095642;28;20068;-77
2023/08/29 04:47:36;;;;;;;9.15;4.75;;;12.00;99.90;;;;;;5086871;28;20132;-77
2023/08/29 04:50:03;;;;;;;7.20;4.68;;;12.00;99.90;;;;;;5079320;28;20507;-77
2023/08/29 04:52:29;;;;;;;9.77;4.93;;;12.00;99.90;;;;;;5093458;28;20028;-77
2023/08/29 04:54:55;;;;;;;9.57;5.00;;;12.00;99.90;;;;;;5081563;28;20048;-77
2023/08/29 04:57:21;;;;;;;7.47;5.13;;;11.90;99.90;;;;;;5078962;28;20036;-76
2023/08/29 04:59:48;;;;;;;7.00;4.88;;;12.00;99.90;;;;;;5085607;28;20036;-77
2023/08/29 05:02:15;;;;;;;7.30;5.18;;;11.90;99.90;;;;;;5086825;28;20047;-77
2023/08/29 05:04:46;;;;;;;7.47;5.38;;;11.90;99.90;;;;;;5093312;28;20052;-77
2023/08/29 05:07:11;;;;;;;8.73;4.90;;;12.00;99.90;;;;;;5096581;28;20400;-76
2023/08/29 05:09:37;;;;;;;6.63;4.90;;;11.90;99.90;;;;;;5089397;28;20127;-75
2023/08/29 05:12:03;;;;;;;8.43;5.28;;;11.90;99.90;;;;;;5100400;28;20224;-77
2023/08/29 05:14:29;;;;;;;11.63;5.65;;;11.90;99.90;;;;;;5073374;28;20041;-77
2023/08/29 05:16:55;;;;;;;7.78;5.35;;;11.90;99.90;;;;;;5089441;28;20040;-77
2023/08/29 05:19:20;;;;;;;8.73;5.50;;;11.90;99.90;;;;;;5095162;28;20063;-76
2023/08/29 05:21:46;;;;;;;7.90;5.15;;;11.90;99.90;;;;;;5109414;27;20052;-77
2023/08/29 05:24:12;;;;;;;8.48;5.32;;;11.90;99.90;;;;;;5085005;28;20044;-76
2023/08/29 05:26:37;;;;;;;9.07;5.07;;;11.90;99.90;;;;;;5117825;28;20493;-77
2023/08/29 05:29:03;;;;;;;10.38;5.32;;;11.90;99.90;;;;;;5112771;28;20043;-76
2023/08/29 05:31:29;;;;;;;6.82;5.32;;;11.90;99.90;;;;;;5087591;28;20038;-77
2023/08/29 05:33:55;;;;;;;7.35;5.63;;;11.90;99.90;;;;;;5092406;28;20044;-77
2023/08/29 05:36:21;;;;;;;10.77;5.22;;;12.00;99.90;;;;;;5091928;28;20401;-77
2023/08/29 05:38:47;;;;;;;8.98;5.53;;;12.00;99.90;;;;;;5083095;28;20040;-76
2023/08/29 05:41:13;;;;;;;8.45;5.03;;;12.00;99.90;;;;;;5080787;28;20063;-76
2023/08/29 05:43:39;;;;;;;9.43;5.18;;;12.00;99.90;;;;;;5083402;28;20075;-77
2023/08/29 05:46:04;;;;;;;8.48;5.40;;;12.00;99.90;;;;;;5094660;28;20059;-77
2023/08/29 05:48:30;;;;;;;8.48;5.22;;;12.10;99.90;;;;;;5086570;28;20068;-77
2023/08/29 05:50:56;;;;;;;10.02;5.32;;;12.10;99.90;;;;;;5079011;28;20048;-77
2023/08/29 05:53:21;;;;;;;5.55;4.43;;;12.20;99.90;;;;;;5081789;28;20051;-77
2023/08/29 05:55:47;;;;;;;6.72;4.95;;;12.20;99.90;;;;;;5074053;28;20036;-77
2023/08/29 05:58:13;;;;;;;6.78;4.85;;;12.30;99.90;;;;;;5096653;28;20036;-77
2023/08/29 06:00:39;;;;;;;6.45;5.07;;;12.30;99.90;;;;;;5080512;28;20072;-77
2023/08/29 06:03:07;;;;;;;9.93;5.38;;;12.40;99.90;;;;;;5086203;28;20036;-77
2023/08/29 06:05:33;;;;;;;;;;;12.50;99.90;;;;;;5088104;28;20470;-77
2023/08/29 06:08:03;;;;;;;8.05;4.90;;;12.50;99.90;;;;;;5091132;28;19932;-77
2023/08/29 06:10:29;;;;;;;7.35;4.80;;;12.60;99.90;;;;;;5094550;28;20035;-77
2023/08/29 06:12:55;;;;;;;10.50;4.85;;;12.70;99.90;;;;;;5092240;28;20040;-77
2023/08/29 06:15:22;;;;;;;5.30;4.57;;;13.00;99.90;;;;;;5081713;28;20090;-77
2023/08/29 06:17:48;;;;;;;9.05;5.40;;;13.30;99.90;;;;;;5087963;28;20074;-77
2023/08/29 06:20:14;;;;;;;8.40;3.92;;;13.80;99.90;;;;;;5087916;28;20043;-77
2023/08/29 06:22:40;;;;;;;3.92;3.00;;;14.30;99.90;;;;;;5076679;28;20040;-78
2023/08/29 06:25:09;;;;;;;4.35;3.20;;;14.80;99.90;;;;;;5083983;28;20482;-77
2023/08/29 06:27:36;;;;;;;7.10;3.35;;;15.10;99.90;;;;;;5082094;28;20117;-77
2023/08/29 06:30:02;;;;;;;4.03;2.88;;;15.20;99.90;;;;;;5074904;28;20041;-78
2023/08/29 06:32:29;;;;;;;5.85;3.20;;;15.30;99.90;;;;;;5125128;27;20048;-77
2023/08/29 06:34:55;;;;;;;4.95;2.80;;;15.60;99.90;;;;;;5108456;28;20508;-77
2023/08/29 06:37:21;;;;;;;3.67;2.65;;;15.80;99.90;;;;;;5074596;28;20037;-77
2023/08/29 06:39:47;;;;;;;3.90;2.60;;;15.90;99.90;;;;;;5085314;28;20047;-78
2023/08/29 06:42:12;;;;;;;7.03;2.97;;;15.90;99.90;;;;;;5090587;28;20448;-78
2023/08/29 06:44:38;;;;;;;7.65;2.30;;;16.00;99.90;;;;;;5081881;28;20036;-77
2023/08/29 06:47:04;;;;;;;4.22;2.42;;;16.20;99.90;;;;;;5080462;28;20036;-78
2023/08/29 06:49:30;;;;;;;5.53;2.38;;;16.40;99.90;;;;;;5090780;28;20382;-77
2023/08/29 06:51:56;;;;;;;3.63;1.95;;;16.60;99.90;;;;;;5091301;28;20048;-77
2023/08/29 06:54:22;;;;;;;5.45;2.75;;;16.90;99.90;;;;;;5089126;28;20055;-77
2023/08/29 06:56:49;;;;;;;4.97;2.30;;;17.20;99.90;;;;;;5092919;28;20055;-77
2023/08/29 06:59:15;;;;;;;3.30;2.20;;;17.50;99.90;;;;;;5076951;28;20402;-77
2023/08/29 07:01:45;;;;;;;4.55;1.90;;;17.60;99.90;;;;;;5080874;28;20055;-77
2023/08/29 07:04:11;;;;;;;3.78;2.20;;;17.60;99.90;;;;;;5075620;28;20589;-77
2023/08/29 07:06:36;;;;;;;3.35;1.75;;;17.50;99.90;;;;;;5114304;27;20127;-77
2023/08/29 07:09:02;;;;;;;3.45;1.95;;;17.50;99.90;;;;;;5075311;28;20098;-77
2023/08/29 07:11:31;;;;;;;6.20;1.85;;;17.50;99.90;;;;;;5083239;28;20129;-77
2023/08/29 07:13:57;;;;;;;3.25;1.90;;;17.40;99.90;;;;;;5096346;28;20039;-77
2023/08/29 07:16:22;;;;;;;6.60;1.80;;;17.50;99.90;;;;;;5090117;28;20033;-77
2023/08/29 07:18:48;;;;;;;7.05;1.80;;;17.50;99.90;;;;;;5082585;28;20044;-77
2023/08/29 07:21:14;;;;;;;4.68;1.75;;;17.60;99.90;;;;;;5088146;28;20040;-77
2023/08/29 07:23:40;;;;;;;5.22;2.05;;;17.60;99.90;;;;;;5110757;28;20044;-77
2023/08/29 07:26:05;;;;;;;8.55;2.60;;;17.60;99.90;;;;;;5085401;28;20036;-77
2023/08/29 07:28:31;;;;;;;3.85;1.90;;;17.60;99.90;;;;;;5081169;28;20564;-78
2023/08/29 07:30:58;;;;;;;6.00;2.03;;;17.60;99.90;;;;;;5090331;28;20036;-77
2023/08/29 07:33:24;;;;;;;4.20;1.90;;;17.60;99.90;;;;;;5063945;28;20410;-77
2023/08/29 07:35:49;;;;;;;3.35;1.90;;;17.60;99.90;;;;;;5109123;27;20518;-78
2023/08/29 07:38:17;;;;;;;4.15;2.20;;;17.60;99.90;;;;;;5087520;28;20051;-78
2023/08/29 07:40:43;;;;;;;;;;;17.60;99.90;;;;;;5089416;28;20079;-77
2023/08/29 07:43:10;;;;;;;5.90;2.42;;;17.60;99.90;;;;;;5086714;28;20321;-78
2023/08/29 07:45:36;;;;;;;4.10;2.00;;;17.60;99.90;;;;;;5095353;28;20051;-77
2023/08/29 07:48:05;;;;;;;8.90;2.20;;;17.60;99.90;;;;;;5085568;28;20040;-77
2023/08/29 07:50:31;;;;;;;3.83;1.98;;;17.70;99.90;;;;;;5090595;28;20128;-76
2023/08/29 07:52:57;;;;;;;6.05;1.90;;;17.70;99.90;;;;;;5075202;28;20473;-76
2023/08/29 07:55:23;;;;;;;5.38;1.77;;;17.70;99.90;;;;;;5080737;28;20380;-77
2023/08/29 07:57:49;;;;;;;9.88;1.90;;;17.60;99.90;;;;;;5092207;28;20047;-77
2023/08/29 08:00:15;;;;;;;6.05;1.83;;;17.70;99.90;;;;;;5094173;28;20043;-77
2023/08/29 08:02:41;;;;;;;9.20;2.30;;;17.60;99.90;;;;;;5085487;28;20051;-77
2023/08/29 08:05:07;;;;;;;6.60;2.28;;;17.60;99.90;;;;;;5104446;28;20040;-76
2023/08/29 08:07:33;;;;;;;9.90;3.38;;;17.60;99.90;;;;;;5091285;28;20044;-78
2023/08/29 08:09:59;;;;;;;12.73;4.13;;;17.60;99.90;;;;;;5100323;28;20047;-76
2023/08/29 08:12:25;;;;;;;14.18;3.75;;;17.60;99.90;;;;;;5089147;28;20044;-76
2023/08/29 08:14:52;;;;;;;6.22;2.17;;;17.60;99.90;;;;;;5074656;28;20040;-76
2023/08/29 08:17:18;;;;;;;4.88;2.05;;;17.70;99.90;;;;;;5091855;28;20127;-76
2023/08/29 08:19:44;;;;;;;5.70;2.17;;;17.70;99.90;;;;;;5077383;28;20459;-77
2023/08/29 08:22:10;;;;;;;7.10;1.60;;;17.80;99.90;;;;;;5091086;28;20411;-77
2023/08/29 08:24:36;;;;;;;3.05;1.65;;;17.90;99.90;;;;;;5083939;28;20052;-77
2023/08/29 08:27:01;;;;;;;3.38;1.70;;;18.00;99.90;;;;;;5091806;28;20397;-78
2023/08/29 08:29:27;;;;;;;3.75;1.95;;;18.10;99.90;;;;;;5087666;28;20032;-77
2023/08/29 08:31:53;;;;;;;6.00;2.10;;;18.20;99.90;;;;;;5091321;28;20040;-77
2023/08/29 08:34:22;;;;;;;5.15;1.83;;;18.20;99.90;;;;;;5096196;28;20509;-77
2023/08/29 08:36:47;;;;;;;3.08;2.05;;;18.30;99.90;;;;;;5093185;28;20040;-77
2023/08/29 08:39:13;;;;;;;5.72;1.77;;;18.40;99.90;;;;;;5081098;28;20085;-77
2023/08/29 08:41:39;;;;;;;3.00;1.90;;;18.50;99.90;;;;;;5088301;28;20082;-75
2023/08/29 08:44:08;;;;;;;3.97;1.77;;;18.60;99.90;;;;;;5100941;28;20397;-75
2023/08/29 08:46:34;;;;;;;2.92;1.52;;;18.80;99.90;;;;;;5074792;28;20037;-76
2023/08/29 08:49:01;;;;;;;2.58;1.40;;;18.80;99.90;;;;;;5094113;28;20053;-76
2023/08/29 08:51:29;;;;;;;4.07;1.50;;;18.80;99.90;;;;;;5087063;28;20032;-77
2023/08/29 08:53:55;;;;;;;1.98;1.25;;;18.70;99.90;;;;;;5090068;28;20138;-77
2023/08/29 08:56:22;;;;;;;2.13;1.00;;;18.70;99.90;;;;;;5080431;28;20388;-77
2023/08/29 08:58:49;;;;;;;4.32;1.10;;;18.70;99.90;;;;;;5084963;28;20048;-77
2023/08/29 09:01:16;;;;;;;2.63;1.05;;;18.60;99.90;;;;;;5084294;28;20375;-76
2023/08/29 09:03:42;;;;;;;2.28;1.10;;;18.60;99.90;;;;;;5086596;28;20079;-77
2023/08/29 09:06:09;;;;;;;2.67;1.38;;;18.50;99.90;;;;;;5071451;28;20044;-76
2023/08/29 09:08:35;;;;;;;4.30;2.10;;;18.60;99.90;;;;;;5070642;28;20090;-76
2023/08/29 09:11:03;;;;;;;1.95;1.33;;;18.70;99.90;;;;;;5075418;28;20040;-79
2023/08/29 09:13:30;;;;;;;1.90;1.25;;;18.80;99.90;;;;;;5076853;28;20482;-77
2023/08/29 09:15:58;;;;;;;2.75;1.70;;;18.70;99.90;;;;;;5085642;28;20082;-77
2023/08/29 09:18:29;;;;;;;6.40;2.40;;;18.80;99.90;;;;;;5084590;28;20056;-75
2023/08/29 09:20:57;;;;;;;7.35;2.55;;;18.90;99.90;;;;;;5089697;28;20053;-75
2023/08/29 09:23:25;;;;;;;5.70;2.42;;;19.10;99.90;;;;;;5106627;27;20090;-77
2023/08/29 09:25:55;;;;;;;3.65;2.13;;;19.10;99.90;;;;;;5085085;28;20432;-76
2023/08/29 09:28:29;;;;;;;10.82;2.65;;;19.20;99.90;;;;;;5085125;28;20047;-76
2023/08/29 09:30:55;;;;;;;7.72;1.70;;;19.30;99.90;;;;;;5090704;28;20043;-76
2023/08/29 09:33:21;;;;;;;3.33;1.50;;;19.40;99.90;;;;;;5082198;28;20045;-76
2023/08/29 09:35:50;;;;;;;4.47;1.67;;;19.60;99.90;;;;;;5085836;28;20044;-76
2023/08/29 09:38:20;;;;;;;4.00;1.77;;;19.70;99.90;;;;;;5094933;28;20044;-76
2023/08/29 09:40:50;;;;;;;5.10;1.85;;;19.80;99.90;;;;;;5092084;28;20040;-76
2023/08/29 09:43:17;;;;;;;6.85;2.70;;;19.90;99.90;;;;;;5081024;28;20111;-76
2023/08/29 09:45:49;;;;;;;7.18;2.50;;;20.00;99.90;;;;;;5085055;28;20374;-76
2023/08/29 09:48:15;;;;;;;7.03;2.50;;;20.10;99.90;;;;;;5073747;28;20044;-76
2023/08/29 09:50:42;;;;;;;3.72;1.80;;;20.20;99.90;;;;;;5085307;28;20063;-76
2023/08/29 09:53:14;;;;;;;4.65;1.90;;;20.20;99.90;;;;;;5089398;28;20040;-76
2023/08/29 09:55:46;;;;;;;5.88;2.15;;;20.30;99.90;;;;;;5085891;28;20055;-76
2023/08/29 09:58:14;;;;;;;6.93;2.30;;;20.30;99.90;;;;;;5093512;28;20487;-76
2023/08/29 10:00:41;;;;;;;6.65;2.13;;;20.30;99.90;;;;;;5085848;28;20071;-76
2023/08/29 10:03:11;;;;;;;4.50;2.35;;;20.30;99.90;;;;;;5081681;28;20506;-76
2023/08/29 10:05:41;;;;;;;5.38;2.17;;;20.20;99.90;;;;;;5085805;28;20097;-76
2023/08/29 10:08:16;;;;;;;3.00;1.98;;;20.20;99.90;;;;;;5082203;28;20039;-76
2023/08/29 10:10:43;;;;;;;5.07;2.60;;;20.20;99.90;;;;;;5093627;28;20332;-76
2023/08/29 10:13:10;;;;;;;3.90;2.08;;;20.20;99.90;;;;;;5089775;28;20530;-76
2023/08/29 10:15:39;;;;;;;3.75;1.92;;;20.20;99.90;;;;;;5089580;28;20044;-76
2023/08/29 10:18:05;;;;;;;2.97;1.70;;;20.30;99.90;;;;;;5079372;28;20055;-76
2023/08/29 10:20:32;;;;;;;3.38;1.60;;;20.40;99.90;;;;;;5084505;28;20259;-76
2023/08/29 10:23:01;;;;;;;4.07;1.63;;;20.40;99.90;;;;;;5108684;28;20066;-76
2023/08/29 10:25:28;;;;;;;5.78;2.58;;;20.50;99.90;;;;;;5092413;28;20052;-77
2023/08/29 10:27:55;;;;;;;3.60;1.90;;;20.50;99.90;;;;;;5115898;27;20036;-76
2023/08/29 10:30:25;;;;;;;3.47;2.17;;;20.40;99.90;;;;;;5089858;28;20102;-74
2023/08/29 10:32:53;;;;;;;3.97;1.92;;;20.40;99.90;;;;;;5085234;28;20393;-76
2023/08/29 10:35:24;;;;;;;5.10;2.13;;;20.30;99.90;;;;;;5083905;28;20054;-75
2023/08/29 10:37:51;;;;;;;5.32;1.90;;;20.30;99.90;;;;;;5081933;28;20127;-76
2023/08/29 10:40:17;;;;;;;;;;;20.40;99.90;;;;;;5083805;28;20089;-75
2023/08/29 10:42:54;;;;;;;2.85;1.90;;;20.40;99.90;;;;;;5073752;28;19924;-77
2023/08/29 10:45:41;;;;;;;6.22;1.55;;;20.60;99.90;;;;;;5087209;28;20082;-76
2023/08/29 10:48:06;;;;;;;3.28;1.80;;;20.70;99.90;;;;;;5046491;28;20110;-77
2023/08/29 10:50:33;;;;;;;3.10;1.40;;;20.80;99.90;;;;;;5093412;28;20044;-76
2023/08/29 10:52:59;;;;;;;5.30;1.85;;;20.80;99.90;;;;;;5088668;28;20195;-76
2023/08/29 10:55:29;;;;;;;7.65;2.35;;;20.80;99.90;;;;;;5086129;28;20206;-76
2023/08/29 10:58:18;;;;;;;3.88;2.05;;;20.90;99.90;;;;;;5082475;28;20044;-76
2023/08/29 11:00:43;;;;;;;4.25;1.80;;;21.00;99.90;;;;;;5081401;28;20172;-75
2023/08/29 11:03:09;;;;;;;5.32;1.70;;;21.20;99.90;;;;;;5083112;28;20458;-75
2023/08/29 11:05:39;;;;;;;4.28;1.75;;;21.40;99.90;;;;;;5084453;28;20040;-75
2023/08/29 11:08:23;;;;;;;5.28;1.95;;;21.50;99.90;;;;;;5084528;28;20040;-75
2023/08/29 11:11:13;;;;;;;3.55;2.05;;;21.60;99.90;;;;;;5089758;28;20036;-75
2023/08/29 11:13:55;;;;;;;4.70;2.00;;;21.70;99.90;;;;;;5078892;28;20398;-76
2023/08/29 11:16:21;;;;;;;6.78;2.20;;;21.80;99.90;;;;;;5087392;28;20047;-76
2023/08/29 11:18:47;;;;;;;9.80;2.67;;;21.80;99.90;;;;;;5083753;28;20040;-76
2023/08/29 11:21:16;;;;;;;5.65;1.83;;;21.70;99.90;;;;;;5080751;28;20536;-76
2023/08/29 11:23:43;;;;;;;3.50;2.03;;;21.80;99.90;;;;;;5095175;28;20046;-76
2023/08/29 11:26:09;;;;;;;4.53;2.40;;;21.90;99.90;;;;;;5103213;28;20051;-76
2023/08/29 11:28:42;;;;;;;5.43;2.20;;;21.90;99.90;;;;;;5105810;28;20082;-76
2023/08/29 11:31:08;;;;;;;4.75;2.30;;;21.90;99.90;;;;;;5094324;28;20370;-76
2023/08/29 11:33:36;;;;;;;5.10;2.25;;;21.90;99.90;;;;;;5081561;28;20048;-76
2023/08/29 11:36:03;;;;;;;8.60;2.53;;;21.80;99.90;;;;;;5083166;28;20046;-76
2023/08/29 11:38:31;;;;;;;7.38;2.60;;;21.80;99.90;;;;;;5086947;28;20052;-76
2023/08/29 11:40:57;;;;;;;5.43;2.60;;;21.70;99.90;;;;;;5088925;28;20123;-76
2023/08/29 11:43:26;;;;;;;3.65;2.22;;;21.80;99.90;;;;;;5120280;27;20518;-75
2023/08/29 11:45:55;;;;;;;3.17;2.03;;;21.70;99.90;;;;;;5080272;28;20040;-75
2023/08/29 11:48:25;;;;;;;3.55;2.10;;;21.70;99.90;;;;;;5080061;28;20435;-76
2023/08/29 11:50:59;;;;;;;10.00;2.40;;;21.70;99.90;;;;;;5082236;28;20067;-76
2023/08/29 11:53:38;;;;;;;4.65;2.35;;;21.50;99.90;;;;;;5088918;28;20531;-76
2023/08/29 11:56:05;;;;;;;5.43;2.40;;;21.50;99.90;;;;;;5091339;28;20044;-76
2023/08/29 11:58:33;;;;;;;3.80;1.95;;;21.50;99.90;;;;;;5087338;28;20478;-75
2023/08/29 12:01:02;;;;;;;;;;;21.50;99.90;;;;;;5082678;28;20036;-75
2023/08/29 12:03:28;;;;;;;3.40;1.77;;;21.30;99.90;;;;;;5074612;28;20011;-76
2023/08/29 12:05:58;;;;;;;3.08;1.90;;;21.20;99.90;;;;;;5075456;28;20128;-76
2023/08/29 12:08:53;;;;;;;2.92;2.28;;;21.10;99.90;;;;;;5077303;28;20064;-76
2023/08/29 12:11:19;;;;;;;6.55;2.40;;;21.10;99.90;;;;;;5066626;28;20052;-77
2023/08/29 12:14:01;;;;;;;3.53;2.00;;;21.10;99.90;;;;;;5080434;28;20032;-76
2023/08/29 12:16:26;;;;;;;5.03;2.20;;;21.10;99.90;;;;;;5079679;28;20136;-76
2023/08/29 12:19:08;;;;;;;3.55;1.90;;;21.10;99.90;;;;;;5075879;28;20147;-75
2023/08/29 12:21:34;;;;;;;3.97;2.40;;;21.10;99.90;;;;;;5073288;28;20056;-76
2023/08/29 12:24:11;;;;;;;6.57;2.10;;;21.10;99.90;;;;;;5082555;28;20387;-76
2023/08/29 12:26:37;;;;;;;3.67;2.00;;;21.10;99.90;;;;;;5095827;28;20040;-76
2023/08/29 12:29:03;;;;;;;6.10;2.22;;;21.10;99.90;;;;;;5075928;28;20041;-75
2023/08/29 12:31:28;;;;;;;5.22;2.20;;;21.20;99.90;;;;;;5080230;28;20055;-75
2023/08/29 12:33:54;;;;;;;7.05;2.13;;;21.50;99.90;;;;;;5086121;28;20112;-75
2023/08/29 12:36:20;;;;;;;3.70;1.92;;;21.60;99.90;;;;;;5084715;28;20044;-75
2023/08/29 12:38:45;;;;;;;3.10;2.05;;;21.60;99.90;;;;;;5086140;28;20086;-75
2023/08/29 12:41:15;;;;;;;3.97;2.10;;;21.60;99.90;;;;;;5095973;28;20036;-76
2023/08/29 12:43:41;;;;;;;6.25;2.20;;;21.50;99.90;;;;;;5096049;28;20111;-76
2023/08/29 12:46:08;;;;;;;4.93;2.38;;;21.50;99.90;;;;;;5079594;28;20103;-76
2023/08/29 12:48:34;;;;;;;4.07;2.10;;;21.50;99.90;;;;;;5078937;28;20044;-76